sensor_id;sensor_type;location;lat;lon;timestamp;temperature;humidity
14735;DHT22;7458;49.002;8.472;2023-06-14T00:00:59;18.30;72.80
14735;DHT22;7458;49.002;8.472;2023-06-14T00:03:24;18.40;73.50
14735;DHT22;7458;49.002;8.472;2023-06-14T00:05:51;17.90;73.00
14735;DHT22;7458;49.002;8.472;2023-06-14T00:08:17;18.30;73.20
14735;DHT22;7458;49.002;8.472;2023-06-14T00:10:44;17.50;73.50
14735;DHT22;7458;49.002;8.472;2023-06-14T00:13:10;17.90;60.10
14735;DHT22;7458;49.002;8.472;2023-06-14T00:15:36;18.10;74.20
14735;DHT22;7458;49.002;8.472;2023-06-14T00:20:30;18.20;74.70
14735;DHT22;7458;49.002;8.472;2023-06-14T00:23:01;17.70;74.50
14735;DHT22;7458;49.002;8.472;2023-06-14T00:25:27;18.20;74.90
14735;DHT22;7458;49.002;8.472;2023-06-14T00:27:54;17.60;75.00
14735;DHT22;7458;49.002;8.472;2023-06-14T00:30:21;17.40;75.40
14735;DHT22;7458;49.002;8.472;2023-06-14T00:40:06;17.70;76.60
14735;DHT22;7458;49.002;8.472;2023-06-14T00:42:33;17.80;76.10
14735;DHT22;7458;49.002;8.472;2023-06-14T00:44:59;17.80;76.10
14735;DHT22;7458;49.002;8.472;2023-06-14T00:49:53;17.30;61.70
14735;DHT22;7458;49.002;8.472;2023-06-14T00:52:21;17.50;77.10
14735;DHT22;7458;49.002;8.472;2023-06-14T00:54:49;17.30;64.10
14735;DHT22;7458;49.002;8.472;2023-06-14T00:57:15;17.10;76.50
14735;DHT22;7458;49.002;8.472;2023-06-14T00:59:43;17.30;76.90
14735;DHT22;7458;49.002;8.472;2023-06-14T01:04:40;17.10;62.30
14735;DHT22;7458;49.002;8.472;2023-06-14T01:13:15;17.20;77.00
14735;DHT22;7458;49.002;8.472;2023-06-14T01:15:47;17.20;63.10
14735;DHT22;7458;49.002;8.472;2023-06-14T01:18:13;17.10;77.40
14735;DHT22;7458;49.002;8.472;2023-06-14T01:20:47;16.60;77.20
14735;DHT22;7458;49.002;8.472;2023-06-14T01:23:19;17.00;77.60
14735;DHT22;7458;49.002;8.472;2023-06-14T01:25:47;16.50;77.70
14735;DHT22;7458;49.002;8.472;2023-06-14T01:28:19;17.00;66.70
14735;DHT22;7458;49.002;8.472;2023-06-14T01:30:49;16.80;78.00
14735;DHT22;7458;49.002;8.472;2023-06-14T01:33:26;16.70;78.10
14735;DHT22;7458;49.002;8.472;2023-06-14T01:35:53;16.30;77.90
14735;DHT22;7458;49.002;8.472;2023-06-14T01:38:25;16.30;78.00
14735;DHT22;7458;49.002;8.472;2023-06-14T01:40:54;15.90;68.20
14735;DHT22;7458;49.002;8.472;2023-06-14T01:43:22;16.40;78.50
14735;DHT22;7458;49.002;8.472;2023-06-14T01:45:51;16.50;78.50
14735;DHT22;7458;49.002;8.472;2023-06-14T01:48:19;16.50;64.20
14735;DHT22;7458;49.002;8.472;2023-06-14T01:53:13;16.60;79.30
14735;DHT22;7458;49.002;8.472;2023-06-14T01:55:38;16.40;79.20
14735;DHT22;7458;49.002;8.472;2023-06-14T01:58:08;16.70;79.80
14735;DHT22;7458;49.002;8.472;2023-06-14T02:00:35;16.70;79.60
14735;DHT22;7458;49.002;8.472;2023-06-14T02:05:29;16.50;79.40
14735;DHT22;7458;49.002;8.472;2023-06-14T02:07:56;16.60;80.40
14735;DHT22;7458;49.002;8.472;2023-06-14T02:12:48;16.50;80.60
14735;DHT22;7458;49.002;8.472;2023-06-14T02:15:14;15.70;80.00
14735;DHT22;7458;49.002;8.472;2023-06-14T02:17:44;16.10;80.20
14735;DHT22;7458;49.002;8.472;2023-06-14T02:20:10;16.00;80.10
14735;DHT22;7458;49.002;8.472;2023-06-14T02:22:36;16.00;73.20
14735;DHT22;7458;49.002;8.472;2023-06-14T02:25:02;16.30;81.20
14735;DHT22;7458;49.002;8.472;2023-06-14T02:29:54;16.20;81.40
14735;DHT22;7458;49.002;8.472;2023-06-14T02:32:20;16.10;81.60
14735;DHT22;7458;49.002;8.472;2023-06-14T02:34:46;15.90;81.70
14735;DHT22;7458;49.002;8.472;2023-06-14T02:37:16;15.70;67.50
14735;DHT22;7458;49.002;8.472;2023-06-14T02:39:42;15.40;82.30
14735;DHT22;7458;49.002;8.472;2023-06-14T02:42:07;15.30;82.60
14735;DHT22;7458;49.002;8.472;2023-06-14T02:47:00;15.70;83.20
14735;DHT22;7458;49.002;8.472;2023-06-14T02:49:26;15.70;83.40
14735;DHT22;7458;49.002;8.472;2023-06-14T02:54:18;15.20;83.10
14735;DHT22;7458;49.002;8.472;2023-06-14T02:56:44;15.70;83.00
14735;DHT22;7458;49.002;8.472;2023-06-14T02:59:09;15.30;80.30
14735;DHT22;7458;49.002;8.472;2023-06-14T03:04:09;15.50;82.10
14735;DHT22;7458;49.002;8.472;2023-06-14T03:09:02;15.50;82.70
14735;DHT22;7458;49.002;8.472;2023-06-14T03:11:31;15.30;68.10
14735;DHT22;7458;49.002;8.472;2023-06-14T03:16:23;15.30;78.40
14735;DHT22;7458;49.002;8.472;2023-06-14T03:18:53;15.20;83.70
14735;DHT22;7458;49.002;8.472;2023-06-14T03:21:19;15.00;82.80
14735;DHT22;7458;49.002;8.472;2023-06-14T03:23:48;15.30;82.80
14735;DHT22;7458;49.002;8.472;2023-06-14T03:26:15;15.40;68.80
14735;DHT22;7458;49.002;8.472;2023-06-14T03:31:11;15.50;67.60
14735;DHT22;7458;49.002;8.472;2023-06-14T03:33:38;15.60;80.50
14735;DHT22;7458;49.002;8.472;2023-06-14T03:36:05;15.60;82.90
14735;DHT22;7458;49.002;8.472;2023-06-14T03:38:35;16.10;83.20
14735;DHT22;7458;49.002;8.472;2023-06-14T03:43:27;15.50;78.60
14735;DHT22;7458;49.002;8.472;2023-06-14T03:45:53;15.30;83.60
14735;DHT22;7458;49.002;8.472;2023-06-14T03:50:45;15.50;83.90
14735;DHT22;7458;49.002;8.472;2023-06-14T03:53:11;15.90;83.90
14735;DHT22;7458;49.002;8.472;2023-06-14T03:55:37;15.60;83.40
14735;DHT22;7458;49.002;8.472;2023-06-14T03:58:03;15.70;73.00
14735;DHT22;7458;49.002;8.472;2023-06-14T04:00:29;15.60;84.20
14735;DHT22;7458;49.002;8.472;2023-06-14T04:02:55;15.50;80.40
14735;DHT22;7458;49.002;8.472;2023-06-14T04:07:48;15.30;78.10
14735;DHT22;7458;49.002;8.472;2023-06-14T04:10:17;15.30;84.90
14735;DHT22;7458;49.002;8.472;2023-06-14T04:15:09;15.50;85.90
14735;DHT22;7458;49.002;8.472;2023-06-14T04:17:36;15.20;85.80
14735;DHT22;7458;49.002;8.472;2023-06-14T04:20:03;15.20;86.00
14735;DHT22;7458;49.002;8.472;2023-06-14T04:22:31;15.30;85.50
14735;DHT22;7458;49.002;8.472;2023-06-14T04:24:57;15.10;85.80
14735;DHT22;7458;49.002;8.472;2023-06-14T04:27:23;14.90;70.90
14735;DHT22;7458;49.002;8.472;2023-06-14T04:29:54;15.20;85.80
14735;DHT22;7458;49.002;8.472;2023-06-14T04:32:25;15.10;84.60
14735;DHT22;7458;49.002;8.472;2023-06-14T04:34:57;15.40;71.40
14735;DHT22;7458;49.002;8.472;2023-06-14T04:37:24;15.40;86.00
14735;DHT22;7458;49.002;8.472;2023-06-14T04:39:54;15.90;85.80
14735;DHT22;7458;49.002;8.472;2023-06-14T04:42:21;15.10;85.40
14735;DHT22;7458;49.002;8.472;2023-06-14T04:44:51;16.00;71.60
14735;DHT22;7458;49.002;8.472;2023-06-14T04:52:13;15.40;76.60
14735;DHT22;7458;49.002;8.472;2023-06-14T04:54:39;15.60;71.60
14735;DHT22;7458;49.002;8.472;2023-06-14T04:57:09;16.40;71.80
14735;DHT22;7458;49.002;8.472;2023-06-14T04:59:40;15.70;77.00
14735;DHT22;7458;49.002;8.472;2023-06-14T05:04:32;16.30;85.20
14735;DHT22;7458;49.002;8.472;2023-06-14T05:06:59;16.00;80.40
14735;DHT22;7458;49.002;8.472;2023-06-14T05:09:25;16.20;85.10
14735;DHT22;7458;49.002;8.472;2023-06-14T05:19:10;15.70;83.70
14735;DHT22;7458;49.002;8.472;2023-06-14T05:21:36;16.60;83.60
14735;DHT22;7458;49.002;8.472;2023-06-14T05:24:02;16.40;82.00
14735;DHT22;7458;49.002;8.472;2023-06-14T05:28:58;16.50;82.50
14735;DHT22;7458;49.002;8.472;2023-06-14T05:31:26;16.10;82.40
14735;DHT22;7458;49.002;8.472;2023-06-14T05:33:53;16.50;82.50
14735;DHT22;7458;49.002;8.472;2023-06-14T05:36:20;17.30;82.30
14735;DHT22;7458;49.002;8.472;2023-06-14T05:41:24;17.00;81.30
14735;DHT22;7458;49.002;8.472;2023-06-14T05:43:51;17.00;70.40
14735;DHT22;7458;49.002;8.472;2023-06-14T05:46:18;17.80;81.40
14735;DHT22;7458;49.002;8.472;2023-06-14T05:48:48;16.10;66.20
14735;DHT22;7458;49.002;8.472;2023-06-14T05:51:14;18.30;80.60
14735;DHT22;7458;49.002;8.472;2023-06-14T05:53:47;18.80;77.80
14735;DHT22;7458;49.002;8.472;2023-06-14T05:56:14;20.80;73.30
14735;DHT22;7458;49.002;8.472;2023-06-14T05:58:43;20.50;70.80
14735;DHT22;7458;49.002;8.472;2023-06-14T06:01:09;20.00;72.70
14735;DHT22;7458;49.002;8.472;2023-06-14T06:03:36;19.90;73.60
14735;DHT22;7458;49.002;8.472;2023-06-14T06:06:01;20.20;73.70
14735;DHT22;7458;49.002;8.472;2023-06-14T06:08:28;21.50;71.80
14735;DHT22;7458;49.002;8.472;2023-06-14T06:10:55;21.30;67.80
14735;DHT22;7458;49.002;8.472;2023-06-14T06:13:22;22.10;57.20
14735;DHT22;7458;49.002;8.472;2023-06-14T06:15:47;24.60;64.40
14735;DHT22;7458;49.002;8.472;2023-06-14T06:18:13;24.00;53.80
14735;DHT22;7458;49.002;8.472;2023-06-14T06:20:39;24.80;60.10
14735;DHT22;7458;49.002;8.472;2023-06-14T06:23:05;24.90;59.30
14735;DHT22;7458;49.002;8.472;2023-06-14T06:25:31;25.10;58.90
14735;DHT22;7458;49.002;8.472;2023-06-14T06:27:57;24.60;57.40
14735;DHT22;7458;49.002;8.472;2023-06-14T06:30:23;24.60;49.10
14735;DHT22;7458;49.002;8.472;2023-06-14T06:32:50;24.30;61.00
14735;DHT22;7458;49.002;8.472;2023-06-14T06:35:16;24.70;58.10
14735;DHT22;7458;49.002;8.472;2023-06-14T06:37:42;25.10;56.80
14735;DHT22;7458;49.002;8.472;2023-06-14T06:40:09;25.30;48.10
14735;DHT22;7458;49.002;8.472;2023-06-14T06:42:36;27.20;53.80
14735;DHT22;7458;49.002;8.472;2023-06-14T06:45:02;27.30;44.50
14735;DHT22;7458;49.002;8.472;2023-06-14T06:47:27;29.60;52.30
14735;DHT22;7458;49.002;8.472;2023-06-14T06:49:53;28.70;41.60
14735;DHT22;7458;49.002;8.472;2023-06-14T06:52:19;29.30;40.90
14735;DHT22;7458;49.002;8.472;2023-06-14T06:54:45;30.50;40.40
14735;DHT22;7458;49.002;8.472;2023-06-14T06:57:11;30.40;43.30
14735;DHT22;7458;49.002;8.472;2023-06-14T06:59:37;31.10;37.60
14735;DHT22;7458;49.002;8.472;2023-06-14T07:02:03;31.70;36.80
14735;DHT22;7458;49.002;8.472;2023-06-14T07:04:29;32.80;43.40
14735;DHT22;7458;49.002;8.472;2023-06-14T07:06:56;32.90;35.30
14735;DHT22;7458;49.002;8.472;2023-06-14T07:09:22;33.10;33.90
14735;DHT22;7458;49.002;8.472;2023-06-14T07:11:49;33.60;34.00
14735;DHT22;7458;49.002;8.472;2023-06-14T07:14:15;33.50;32.80
14735;DHT22;7458;49.002;8.472;2023-06-14T07:16:41;33.00;32.70
14735;DHT22;7458;49.002;8.472;2023-06-14T07:19:08;33.80;33.60
14735;DHT22;7458;49.002;8.472;2023-06-14T07:21:35;34.50;31.80
14735;DHT22;7458;49.002;8.472;2023-06-14T07:24:05;34.60;37.00
14735;DHT22;7458;49.002;8.472;2023-06-14T07:26:32;34.70;32.00
14735;DHT22;7458;49.002;8.472;2023-06-14T07:28:58;34.60;31.20
14735;DHT22;7458;49.002;8.472;2023-06-14T07:31:23;34.70;30.90
14735;DHT22;7458;49.002;8.472;2023-06-14T07:33:49;35.20;30.70
14735;DHT22;7458;49.002;8.472;2023-06-14T07:36:15;34.00;30.40
14735;DHT22;7458;49.002;8.472;2023-06-14T07:38:41;35.00;31.10
14735;DHT22;7458;49.002;8.472;2023-06-14T07:41:07;35.00;30.00
14735;DHT22;7458;49.002;8.472;2023-06-14T07:43:33;34.80;30.20
14735;DHT22;7458;49.002;8.472;2023-06-14T07:45:58;34.20;38.10
14735;DHT22;7458;49.002;8.472;2023-06-14T07:48:24;34.50;31.20
14735;DHT22;7458;49.002;8.472;2023-06-14T07:50:50;34.80;30.10
14735;DHT22;7458;49.002;8.472;2023-06-14T07:53:15;34.70;30.20
14735;DHT22;7458;49.002;8.472;2023-06-14T07:55:41;33.10;40.70
14735;DHT22;7458;49.002;8.472;2023-06-14T07:58:08;33.10;32.20
14735;DHT22;7458;49.002;8.472;2023-06-14T08:00:34;31.20;40.70
14735;DHT22;7458;49.002;8.472;2023-06-14T08:03:00;31.10;33.80
14735;DHT22;7458;49.002;8.472;2023-06-14T08:05:27;31.30;34.50
14735;DHT22;7458;49.002;8.472;2023-06-14T08:07:53;30.80;42.30
14735;DHT22;7458;49.002;8.472;2023-06-14T08:10:20;30.00;44.30
14735;DHT22;7458;49.002;8.472;2023-06-14T08:12:47;30.60;36.30
14735;DHT22;7458;49.002;8.472;2023-06-14T08:15:15;29.10;42.40
14735;DHT22;7458;49.002;8.472;2023-06-14T08:17:45;29.80;46.10
14735;DHT22;7458;49.002;8.472;2023-06-14T08:20:12;30.40;43.40
14735;DHT22;7458;49.002;8.472;2023-06-14T08:22:40;30.80;36.20
14735;DHT22;7458;49.002;8.472;2023-06-14T08:25:08;31.10;36.00
14735;DHT22;7458;49.002;8.472;2023-06-14T08:27:34;31.00;35.50
14735;DHT22;7458;49.002;8.472;2023-06-14T08:30:00;31.10;44.10
14735;DHT22;7458;49.002;8.472;2023-06-14T08:32:26;30.90;34.80
14735;DHT22;7458;49.002;8.472;2023-06-14T08:34:51;31.00;35.50
14735;DHT22;7458;49.002;8.472;2023-06-14T08:37:17;31.40;41.00
14735;DHT22;7458;49.002;8.472;2023-06-14T08:39:43;31.90;35.30
14735;DHT22;7458;49.002;8.472;2023-06-14T08:42:09;31.60;35.50
14735;DHT22;7458;49.002;8.472;2023-06-14T08:44:36;32.10;35.40
14735;DHT22;7458;49.002;8.472;2023-06-14T08:47:02;31.50;35.30
14735;DHT22;7458;49.002;8.472;2023-06-14T08:49:31;31.30;35.70
14735;DHT22;7458;49.002;8.472;2023-06-14T08:51:59;30.90;44.50
14735;DHT22;7458;49.002;8.472;2023-06-14T08:54:29;31.10;36.20
14735;DHT22;7458;49.002;8.472;2023-06-14T08:56:57;31.00;43.70
14735;DHT22;7458;49.002;8.472;2023-06-14T08:59:26;30.60;36.00
14735;DHT22;7458;49.002;8.472;2023-06-14T09:01:53;30.10;44.80
14735;DHT22;7458;49.002;8.472;2023-06-14T09:04:23;30.40;42.10
14735;DHT22;7458;49.002;8.472;2023-06-14T09:06:55;30.70;36.80
14735;DHT22;7458;49.002;8.472;2023-06-14T09:09:22;30.40;36.60
14735;DHT22;7458;49.002;8.472;2023-06-14T09:11:52;30.30;37.70
14735;DHT22;7458;49.002;8.472;2023-06-14T09:14:18;30.20;45.30
14735;DHT22;7458;49.002;8.472;2023-06-14T09:16:44;30.20;37.00
14735;DHT22;7458;49.002;8.472;2023-06-14T09:19:20;30.30;37.00
14735;DHT22;7458;49.002;8.472;2023-06-14T09:21:48;30.30;37.40
14735;DHT22;7458;49.002;8.472;2023-06-14T09:24:15;29.80;38.70
14735;DHT22;7458;49.002;8.472;2023-06-14T09:26:41;30.00;38.80
14735;DHT22;7458;49.002;8.472;2023-06-14T09:29:07;29.50;46.90
14735;DHT22;7458;49.002;8.472;2023-06-14T09:31:35;29.70;47.30
14735;DHT22;7458;49.002;8.472;2023-06-14T09:34:02;29.40;39.00
14735;DHT22;7458;49.002;8.472;2023-06-14T09:36:31;29.30;38.60
14735;DHT22;7458;49.002;8.472;2023-06-14T09:39:00;29.40;38.50
14735;DHT22;7458;49.002;8.472;2023-06-14T09:41:37;28.20;45.40
14735;DHT22;7458;49.002;8.472;2023-06-14T09:44:06;29.00;37.80
14735;DHT22;7458;49.002;8.472;2023-06-14T09:46:34;27.80;48.20
14735;DHT22;7458;49.002;8.472;2023-06-14T09:49:02;29.00;39.10
14735;DHT22;7458;49.002;8.472;2023-06-14T09:51:30;29.30;38.70
14735;DHT22;7458;49.002;8.472;2023-06-14T09:54:00;28.80;48.00
14735;DHT22;7458;49.002;8.472;2023-06-14T09:56:41;29.00;45.70
14735;DHT22;7458;49.002;8.472;2023-06-14T09:59:10;29.20;38.10
14735;DHT22;7458;49.002;8.472;2023-06-14T10:01:44;29.50;44.30
14735;DHT22;7458;49.002;8.472;2023-06-14T10:04:13;29.40;46.20
14735;DHT22;7458;49.002;8.472;2023-06-14T10:06:43;30.10;46.90
14735;DHT22;7458;49.002;8.472;2023-06-14T10:09:12;29.60;37.30
14735;DHT22;7458;49.002;8.472;2023-06-14T10:11:39;29.80;36.90
14735;DHT22;7458;49.002;8.472;2023-06-14T10:14:09;29.50;41.90
14735;DHT22;7458;49.002;8.472;2023-06-14T10:19:43;29.40;35.40
14735;DHT22;7458;49.002;8.472;2023-06-14T10:22:30;29.70;44.00
14735;DHT22;7458;49.002;8.472;2023-06-14T10:25:02;29.70;36.30
14735;DHT22;7458;49.002;8.472;2023-06-14T10:27:33;29.00;44.10
14735;DHT22;7458;49.002;8.472;2023-06-14T10:32:27;29.70;35.40
14735;DHT22;7458;49.002;8.472;2023-06-14T10:35:08;29.70;36.20
14735;DHT22;7458;49.002;8.472;2023-06-14T10:37:34;29.90;41.50
14735;DHT22;7458;49.002;8.472;2023-06-14T10:40:01;29.90;34.90
14735;DHT22;7458;49.002;8.472;2023-06-14T10:42:31;30.20;35.10
14735;DHT22;7458;49.002;8.472;2023-06-14T10:44:58;30.00;35.60
14735;DHT22;7458;49.002;8.472;2023-06-14T10:47:35;29.90;42.00
14735;DHT22;7458;49.002;8.472;2023-06-14T10:50:06;29.70;34.60
14735;DHT22;7458;49.002;8.472;2023-06-14T10:52:37;29.70;41.90
14735;DHT22;7458;49.002;8.472;2023-06-14T10:55:17;29.90;44.10
14735;DHT22;7458;49.002;8.472;2023-06-14T10:57:50;29.10;42.20
14735;DHT22;7458;49.002;8.472;2023-06-14T11:00:22;29.30;34.60
14735;DHT22;7458;49.002;8.472;2023-06-14T11:06:14;31.00;44.70
14735;DHT22;7458;49.002;8.472;2023-06-14T11:09:20;30.30;42.90
14735;DHT22;7458;49.002;8.472;2023-06-14T11:12:17;30.20;34.80
14735;DHT22;7458;49.002;8.472;2023-06-14T11:14:46;29.50;42.20
14735;DHT22;7458;49.002;8.472;2023-06-14T11:17:13;29.40;42.30
14735;DHT22;7458;49.002;8.472;2023-06-14T11:19:39;29.40;41.90
14735;DHT22;7458;49.002;8.472;2023-06-14T11:22:04;29.70;42.10
14735;DHT22;7458;49.002;8.472;2023-06-14T11:24:32;30.10;42.60
14735;DHT22;7458;49.002;8.472;2023-06-14T11:26:58;30.30;34.60
14735;DHT22;7458;49.002;8.472;2023-06-14T11:29:24;30.30;43.80
14735;DHT22;7458;49.002;8.472;2023-06-14T11:31:51;30.30;41.10
14735;DHT22;7458;49.002;8.472;2023-06-14T11:34:17;30.30;41.10
14735;DHT22;7458;49.002;8.472;2023-06-14T11:36:43;30.40;33.50
14735;DHT22;7458;49.002;8.472;2023-06-14T11:39:09;30.20;41.40
14735;DHT22;7458;49.002;8.472;2023-06-14T11:41:40;30.60;41.20
14735;DHT22;7458;49.002;8.472;2023-06-14T11:44:08;30.80;40.20
14735;DHT22;7458;49.002;8.472;2023-06-14T11:46:35;31.20;41.70
14735;DHT22;7458;49.002;8.472;2023-06-14T11:49:02;30.80;33.80
14735;DHT22;7458;49.002;8.472;2023-06-14T11:51:33;30.20;35.00
14735;DHT22;7458;49.002;8.472;2023-06-14T11:54:01;29.50;43.50
14735;DHT22;7458;49.002;8.472;2023-06-14T11:56:29;29.40;43.40
14735;DHT22;7458;49.002;8.472;2023-06-14T11:58:55;29.50;42.60
14735;DHT22;7458;49.002;8.472;2023-06-14T12:01:22;30.20;43.40
14735;DHT22;7458;49.002;8.472;2023-06-14T12:03:49;30.20;43.40
14735;DHT22;7458;49.002;8.472;2023-06-14T12:06:24;29.80;40.80
14735;DHT22;7458;49.002;8.472;2023-06-14T12:08:55;30.10;42.10
14735;DHT22;7458;49.002;8.472;2023-06-14T12:11:22;28.60;43.40
14735;DHT22;7458;49.002;8.472;2023-06-14T12:13:49;29.00;45.00
14735;DHT22;7458;49.002;8.472;2023-06-14T12:16:14;28.50;44.50
14735;DHT22;7458;49.002;8.472;2023-06-14T12:18:41;28.40;46.00
14735;DHT22;7458;49.002;8.472;2023-06-14T12:21:09;28.50;45.60
14735;DHT22;7458;49.002;8.472;2023-06-14T12:23:54;28.50;37.30
14735;DHT22;7458;49.002;8.472;2023-06-14T12:26:20;28.20;45.40
14735;DHT22;7458;49.002;8.472;2023-06-14T12:28:48;28.90;36.90
14735;DHT22;7458;49.002;8.472;2023-06-14T12:31:15;29.10;46.00
14735;DHT22;7458;49.002;8.472;2023-06-14T12:33:42;29.00;45.80
14735;DHT22;7458;49.002;8.472;2023-06-14T12:36:09;29.00;45.70
14735;DHT22;7458;49.002;8.472;2023-06-14T12:38:36;29.00;46.70
14735;DHT22;7458;49.002;8.472;2023-06-14T12:41:03;28.80;46.50
14735;DHT22;7458;49.002;8.472;2023-06-14T12:43:29;28.50;46.30
14735;DHT22;7458;49.002;8.472;2023-06-14T12:45:58;28.30;46.00
14735;DHT22;7458;49.002;8.472;2023-06-14T12:48:24;28.70;46.10
14735;DHT22;7458;49.002;8.472;2023-06-14T12:50:49;28.90;45.60
14735;DHT22;7458;49.002;8.472;2023-06-14T12:53:15;28.30;45.60
14735;DHT22;7458;49.002;8.472;2023-06-14T12:58:07;28.20;45.60
14735;DHT22;7458;49.002;8.472;2023-06-14T13:00:34;28.50;45.90
14735;DHT22;7458;49.002;8.472;2023-06-14T13:03:00;28.70;46.00
14735;DHT22;7458;49.002;8.472;2023-06-14T13:05:26;28.50;46.00
14735;DHT22;7458;49.002;8.472;2023-06-14T13:07:52;28.90;47.20
14735;DHT22;7458;49.002;8.472;2023-06-14T13:10:17;28.50;45.40
14735;DHT22;7458;49.002;8.472;2023-06-14T13:12:43;28.30;36.70
14735;DHT22;7458;49.002;8.472;2023-06-14T13:15:09;27.80;37.00
14735;DHT22;7458;49.002;8.472;2023-06-14T13:17:36;28.50;46.10
14735;DHT22;7458;49.002;8.472;2023-06-14T13:20:06;28.40;45.90
14735;DHT22;7458;49.002;8.472;2023-06-14T13:22:34;28.40;47.00
14735;DHT22;7458;49.002;8.472;2023-06-14T13:25:01;27.70;45.60
14735;DHT22;7458;49.002;8.472;2023-06-14T13:27:28;28.30;45.10
14735;DHT22;7458;49.002;8.472;2023-06-14T13:29:54;28.70;46.10
14735;DHT22;7458;49.002;8.472;2023-06-14T13:32:21;28.40;45.40
14735;DHT22;7458;49.002;8.472;2023-06-14T13:34:48;28.70;36.90
14735;DHT22;7458;49.002;8.472;2023-06-14T13:37:14;28.10;44.60
14735;DHT22;7458;49.002;8.472;2023-06-14T13:39:40;28.60;45.90
14735;DHT22;7458;49.002;8.472;2023-06-14T13:42:06;27.70;46.20
14735;DHT22;7458;49.002;8.472;2023-06-14T13:44:32;28.50;46.70
14735;DHT22;7458;49.002;8.472;2023-06-14T13:46:57;28.70;46.30
14735;DHT22;7458;49.002;8.472;2023-06-14T13:49:23;27.80;46.40
14735;DHT22;7458;49.002;8.472;2023-06-14T13:51:49;27.90;47.00
14735;DHT22;7458;49.002;8.472;2023-06-14T13:56:44;27.70;45.80
14735;DHT22;7458;49.002;8.472;2023-06-14T13:59:10;28.00;45.70
14735;DHT22;7458;49.002;8.472;2023-06-14T14:01:36;27.90;45.00
14735;DHT22;7458;49.002;8.472;2023-06-14T14:04:02;28.90;41.10
14735;DHT22;7458;49.002;8.472;2023-06-14T14:06:27;28.20;44.70
14735;DHT22;7458;49.002;8.472;2023-06-14T14:08:53;27.80;44.60
14735;DHT22;7458;49.002;8.472;2023-06-14T14:11:19;27.40;44.60
14735;DHT22;7458;49.002;8.472;2023-06-14T14:13:46;27.90;45.30
14735;DHT22;7458;49.002;8.472;2023-06-14T14:16:13;27.60;44.40
14735;DHT22;7458;49.002;8.472;2023-06-14T14:18:39;27.50;45.60
14735;DHT22;7458;49.002;8.472;2023-06-14T14:21:05;27.50;45.70
14735;DHT22;7458;49.002;8.472;2023-06-14T14:23:31;27.40;44.90
14735;DHT22;7458;49.002;8.472;2023-06-14T14:25:57;27.30;44.70
14735;DHT22;7458;49.002;8.472;2023-06-14T14:30:49;27.20;46.40
14735;DHT22;7458;49.002;8.472;2023-06-14T14:33:15;28.00;46.50
14735;DHT22;7458;49.002;8.472;2023-06-14T14:35:44;27.60;46.20
14735;DHT22;7458;49.002;8.472;2023-06-14T14:38:14;27.70;45.00
14735;DHT22;7458;49.002;8.472;2023-06-14T14:40:44;27.50;44.50
14735;DHT22;7458;49.002;8.472;2023-06-14T14:43:10;27.60;44.70
14735;DHT22;7458;49.002;8.472;2023-06-14T14:45:37;27.70;36.40
14735;DHT22;7458;49.002;8.472;2023-06-14T14:48:02;27.40;45.00
14735;DHT22;7458;49.002;8.472;2023-06-14T14:50:29;27.60;44.80
14735;DHT22;7458;49.002;8.472;2023-06-14T14:52:55;27.70;45.20
14735;DHT22;7458;49.002;8.472;2023-06-14T14:57:48;27.60;44.00
14735;DHT22;7458;49.002;8.472;2023-06-14T15:00:14;27.70;35.30
14735;DHT22;7458;49.002;8.472;2023-06-14T15:02:40;27.60;44.20
14735;DHT22;7458;49.002;8.472;2023-06-14T15:05:06;27.30;44.20
14735;DHT22;7458;49.002;8.472;2023-06-14T15:07:32;27.20;44.40
14735;DHT22;7458;49.002;8.472;2023-06-14T15:10:01;27.50;46.40
14735;DHT22;7458;49.002;8.472;2023-06-14T15:12:27;27.10;45.80
14735;DHT22;7458;49.002;8.472;2023-06-14T15:14:53;27.10;45.80
14735;DHT22;7458;49.002;8.472;2023-06-14T15:17:20;27.00;45.80
14735;DHT22;7458;49.002;8.472;2023-06-14T15:19:47;27.20;37.30
14735;DHT22;7458;49.002;8.472;2023-06-14T15:22:13;27.20;45.80
14735;DHT22;7458;49.002;8.472;2023-06-14T15:24:43;27.30;45.70
14735;DHT22;7458;49.002;8.472;2023-06-14T15:27:09;27.10;44.90
14735;DHT22;7458;49.002;8.472;2023-06-14T15:29:44;27.20;44.60
14735;DHT22;7458;49.002;8.472;2023-06-14T15:32:10;27.20;45.60
14735;DHT22;7458;49.002;8.472;2023-06-14T15:37:08;27.30;44.70
14735;DHT22;7458;49.002;8.472;2023-06-14T15:39:34;27.20;45.60
14735;DHT22;7458;49.002;8.472;2023-06-14T15:42:00;27.20;45.80
14735;DHT22;7458;49.002;8.472;2023-06-14T15:44:26;27.10;45.40
14735;DHT22;7458;49.002;8.472;2023-06-14T15:46:52;26.90;45.40
14735;DHT22;7458;49.002;8.472;2023-06-14T15:51:44;27.00;45.60
14735;DHT22;7458;49.002;8.472;2023-06-14T15:54:10;26.90;45.60
14735;DHT22;7458;49.002;8.472;2023-06-14T15:56:36;26.50;46.00
14735;DHT22;7458;49.002;8.472;2023-06-14T15:59:02;27.20;45.50
14735;DHT22;7458;49.002;8.472;2023-06-14T16:01:28;27.40;45.20
14735;DHT22;7458;49.002;8.472;2023-06-14T16:03:54;27.90;46.20
14735;DHT22;7458;49.002;8.472;2023-06-14T16:06:22;27.10;45.80
14735;DHT22;7458;49.002;8.472;2023-06-14T16:08:48;27.50;45.50
14735;DHT22;7458;49.002;8.472;2023-06-14T16:13:40;27.90;46.30
14735;DHT22;7458;49.002;8.472;2023-06-14T16:16:07;27.00;44.50
14735;DHT22;7458;49.002;8.472;2023-06-14T16:18:35;27.60;45.60
14735;DHT22;7458;49.002;8.472;2023-06-14T16:21:00;27.10;44.40
14735;DHT22;7458;49.002;8.472;2023-06-14T16:25:53;28.00;47.50
14735;DHT22;7458;49.002;8.472;2023-06-14T16:28:19;27.10;45.20
14735;DHT22;7458;49.002;8.472;2023-06-14T16:30:47;26.70;38.60
14735;DHT22;7458;49.002;8.472;2023-06-14T16:33:12;27.20;46.70
14735;DHT22;7458;49.002;8.472;2023-06-14T16:35:38;26.50;46.30
14735;DHT22;7458;49.002;8.472;2023-06-14T16:38:04;26.80;46.10
14735;DHT22;7458;49.002;8.472;2023-06-14T16:40:29;26.60;46.20
14735;DHT22;7458;49.002;8.472;2023-06-14T16:42:55;27.40;43.60
14735;DHT22;7458;49.002;8.472;2023-06-14T16:47:49;27.30;46.40
14735;DHT22;7458;49.002;8.472;2023-06-14T16:50:14;26.50;46.20
14735;DHT22;7458;49.002;8.472;2023-06-14T16:55:07;26.50;47.50
14735;DHT22;7458;49.002;8.472;2023-06-14T16:57:33;26.20;46.90
14735;DHT22;7458;49.002;8.472;2023-06-14T16:59:59;27.40;48.20
14735;DHT22;7458;49.002;8.472;2023-06-14T17:02:25;26.40;47.40
14735;DHT22;7458;49.002;8.472;2023-06-14T17:07:17;27.10;47.90
14735;DHT22;7458;49.002;8.472;2023-06-14T17:09:43;27.00;47.90
14735;DHT22;7458;49.002;8.472;2023-06-14T17:14:37;26.00;41.60
14735;DHT22;7458;49.002;8.472;2023-06-14T17:17:03;26.40;48.10
14735;DHT22;7458;49.002;8.472;2023-06-14T17:21:55;26.20;49.20
14735;DHT22;7458;49.002;8.472;2023-06-14T17:24:21;25.70;49.50
14735;DHT22;7458;49.002;8.472;2023-06-14T17:26:46;25.60;49.50
14735;DHT22;7458;49.002;8.472;2023-06-14T17:29:14;25.20;50.10
14735;DHT22;7458;49.002;8.472;2023-06-14T17:31:40;26.50;51.30
14735;DHT22;7458;49.002;8.472;2023-06-14T17:34:06;25.80;50.30
14735;DHT22;7458;49.002;8.472;2023-06-14T17:36:31;25.80;50.50
14735;DHT22;7458;49.002;8.472;2023-06-14T17:38:57;26.20;51.60
14735;DHT22;7458;49.002;8.472;2023-06-14T17:41:23;25.70;51.10